Other Surface Observations
Issued by NWS Great Falls, MT

Home | Current Version | Previous Version | Text Only | Print | Product List | Glossary On
Versions: 1 2 3 4 5 6 7 8 9 10 11 12 13 14 15 16 17 18 19 20 21 22 23 24 25 26 27 28 29 30 31 32 33 34 35 36 37 38 39 40 41 42 43 44 45 46 47 48 49 50
000
SXUS55 KTFX 230229
OSOTFX
AREA AWOS OBSERVATIONS
NATIONAL WEATHER SERVICE GREAT FALLS MT
0829 PM MDT FRI SEP 22 2017

METAR KS71 230230Z AUTO 00000KT 10SM 07/03 A3007 RMK CHINOOK
METAR K38S 230230Z AUTO 31006KT 10SM 02/M01 A3004 RMK DEER LODGE
METAR K3U3 230230Z AUTO 00000KT 10SM 02/M02 A3002 RMK ANACONDA
METAR K6S5 230230Z AUTO 00000KT 10SM 06/00 A3003 RMK HAMILTON
METAR KS59 230230Z AUTO 00000KT 10SM 09/03 A3002 RMK LIBBY
METAR K88M 230230Z AUTO 00000KT 10SM 09/00 A3003 RMK EUREKA



USA.gov is the U.S. government's official web portal to all federal, state and local government web resources and services.